Airfield :
LOGIN :

Register | Disclaimer

   EN    FR    IT 

 










Legend :    VFR   Marginal VFR   IFR   Intensive IFR   Very Intensive IFR
Visi :
Ceiling :
>= 8 km
>= 3000ft
5 to 8 km
1000 to 3000 ft
1500m to 5 km
500 to 1000 ft
800 to 1500m
200 to 500 ft
< 800m
< 200 ft
Symbols :   Thunderstorms  Fog  Heavy snow  Heavy precipitations  Wind > 20 kt
SIGMETs :     Misc.  Thunderstorms  Icing  Turbulence  Mountain Waves  Volcanic Ashes






- Airport Elevation : 1465 ft


LSMP - Payerne

CURRENT METAR :
  • 040820Z AUTO 24007KT 210V270 9999NDV R23/P2000N R05/1400N -RA BKN027 BKN031 OVC070 15/13 Q1000 RMK

EXPIRED METARs :
  • 040750Z AUTO 21006KT 190V250 9999NDV R23/P2000D R05/1400N -SHRA BKN027 BKN036 15/13 Q1000 RMK
  • 040720Z 23008KT 200V260 9999 -SHRA FEW019 BKN032 BKN079 15/12 Q1000 RMK BLU
  • 040650Z AUTO 21003KT 180V250 9999NDV R23/P2000N R05/1400N -RA FEW020 SCT043 15/13 Q1000 RMK
  • 040620Z AUTO 21003KT 180V250 9999NDV FEW034 SCT047 BKN078 15/13 Q1000 RMK
  • 040550Z 24005KT 220V290 9999 FEW039 SCT048 15/13 Q1000 RMK BLU+

Expired Forecast.



MET'MAP, your aeronautical weather chart ! - Copyright ORBIFLY December 2007 - Disclaimer

ORBIFLY MET'MAP TEAM :

Programming & Development : Alexandra Zaïnal
Concept & original design : Baudouin d'Aumeries
Assistance for programming : Marc-Olivier Méhu
Technical & hardware support : Manuel Goepfert

Contact : metmap@orbifly.com




SOURCES & CREDITS :

   NOAA